首页
METAR-TAF:

METAR-TAF

机场 :

Rutherford County Airport (Marchman Field)

Rutherfordton, 北卡罗来纳州, 美国

纬度: 35-25-42N, 经度: 081-56-06W, 海拔: 329米

当前天气观测

该预报发布于22分钟前的07:00 UTC
静风
温度 8°C
湿度 100%
气压 1005 hPa
能見度: 1.6公里
多云层高于300英尺
多云层高于2600英尺
阴天层高于3300英尺
毛毛雨

METAR: KFQD 240700Z AUTO 00000KT 1SM DZ BKN003 BKN026 OVC033 08/08 A2969 RMK AO2

时间: 02:22 (07:22 UTC)


TAF: 丢失

超过4000个机场的气象观测和天气预报(METAR&TAF报告)。

可查询的气象台以黄色和红色小点在地图上表示。

将鼠标移到小点上方,可查看气象台名称。

然后点击查看天气观测和预报。

如需切换地图:点击带黑十字的绿色按钮放大地图;点击带横线的绿色按钮缩小地图;或者点击绿色箭头查看邻近地区的地图。


METAR-TAF: